Time;durP1;ratioP1;P1;durP2;ratioP2;P2;SDS_P1;SDS_P2;PMS_P1;PMS_P2;Temp;Humidity;BMP_temperature;BMP_pressure;BME280_temperature;BME280_humidity;BME280_pressure;Samples;Min_cycle;Max_cycle;Signal;HPM_P1;HPM_P2
2022/06/08 00:00:54;;;;;;;4.93;4.53;;;20.80;99.90;;;;;;10292574;28;20246;-84
2022/06/08 00:05:56;;;;;;;4.43;3.90;;;20.80;99.90;;;;;;10274249;28;20304;-84
2022/06/08 00:10:59;;;;;;;4.60;4.20;;;20.80;99.90;;;;;;10272498;28;20237;-84
2022/06/08 00:16:03;;;;;;;4.82;4.43;;;20.70;99.90;;;;;;10315681;28;20244;-84
2022/06/08 00:21:07;;;;;;;4.78;4.32;;;20.70;99.90;;;;;;10313451;28;20232;-84
2022/06/08 00:26:10;;;;;;;4.75;4.38;;;20.70;99.90;;;;;;10333170;28;20310;-84
2022/06/08 00:31:12;;;;;;;4.40;4.10;;;20.70;99.90;;;;;;10315974;28;20233;-84
2022/06/08 00:36:19;;;;;;;4.38;3.97;;;20.70;99.90;;;;;;10298853;28;20299;-84
2022/06/08 00:41:48;;;;;;;4.03;3.75;;;20.70;99.90;;;;;;10321919;28;20282;-84
2022/06/08 00:46:52;;;;;;;4.38;4.00;;;20.70;99.90;;;;;;10315558;28;20263;-84
2022/06/08 00:51:56;;;;;;;4.20;3.90;;;20.70;99.90;;;;;;10329043;28;20268;-84
2022/06/08 00:57:25;;;;;;;4.85;4.45;;;20.80;99.90;;;;;;10315567;28;20272;-84
2022/06/08 01:02:27;;;;;;;4.70;4.30;;;20.80;99.90;;;;;;10290550;28;20257;-84
2022/06/08 01:07:32;;;;;;;4.43;4.10;;;20.80;99.90;;;;;;10273172;28;20207;-84
2022/06/08 01:12:35;;;;;;;4.30;4.00;;;20.80;99.90;;;;;;10274043;28;20288;-84
2022/06/08 01:17:41;;;;;;;4.97;4.57;;;20.80;99.90;;;;;;10273164;28;20265;-84
2022/06/08 01:22:45;;;;;;;4.85;4.45;;;20.80;99.90;;;;;;10315309;28;20265;-84
2022/06/08 01:28:11;;;;;;;6.18;5.57;;;20.80;99.90;;;;;;10274592;28;20206;-84
2022/06/08 01:33:32;;;;;;;4.75;4.15;;;20.80;99.90;;;;;;10313838;28;20311;-84
2022/06/08 01:38:53;;;;;;;6.05;5.55;;;20.80;99.90;;;;;;10315114;28;21014;-84
2022/06/08 01:44:17;;;;;;;5.88;5.35;;;20.70;99.90;;;;;;10269490;28;20326;-84
2022/06/08 01:49:29;;;;;;;5.55;5.05;;;20.70;99.90;;;;;;10331056;28;20271;-84
2022/06/08 01:55:00;;;;;;;5.65;5.15;;;20.70;99.90;;;;;;10294225;28;20673;-84
2022/06/08 02:00:06;;;;;;;5.43;4.93;;;20.70;99.90;;;;;;10293185;28;20303;-84
2022/06/08 02:05:26;;;;;;;6.47;5.85;;;20.70;99.90;;;;;;10300790;28;20677;-84
2022/06/08 02:10:55;;;;;;;5.43;5.03;;;20.70;99.90;;;;;;10276914;28;20248;-84
2022/06/08 02:16:09;;;;;;;6.13;5.53;;;20.70;99.90;;;;;;10294284;28;20240;-84
2022/06/08 02:21:30;;;;;;;5.07;4.57;;;20.70;99.90;;;;;;10300642;28;20772;-84
2022/06/08 02:26:43;;;;;;;6.40;5.63;;;20.70;99.90;;;;;;10311947;28;20357;-84
2022/06/08 02:31:56;;;;;;;5.30;4.90;;;20.70;99.90;;;;;;10306832;28;20678;-84
2022/06/08 02:37:08;;;;;;;5.25;4.75;;;20.70;99.90;;;;;;10308465;28;20201;-84
2022/06/08 02:42:23;;;;;;;5.78;5.28;;;20.60;99.90;;;;;;10273435;28;20202;-84
2022/06/08 02:47:30;;;;;;;6.18;5.57;;;20.70;99.90;;;;;;10270701;28;20264;-84
2022/06/08 02:52:42;;;;;;;5.60;5.10;;;20.70;99.90;;;;;;10270344;28;20241;-84
2022/06/08 02:57:50;;;;;;;6.47;5.43;;;20.70;99.90;;;;;;10286430;28;20767;-84
2022/06/08 03:03:05;;;;;;;7.07;5.88;;;20.60;99.90;;;;;;10291484;28;20284;-84
2022/06/08 03:08:15;;;;;;;5.85;5.32;;;20.80;99.90;;;;;;10295625;28;20197;-84
2022/06/08 03:13:26;;;;;;;7.30;6.40;;;20.70;99.90;;;;;;10309527;28;20236;-84
2022/06/08 03:18:29;;;;;;;5.78;5.28;;;20.70;99.90;;;;;;10307609;28;20236;-84
2022/06/08 03:23:33;;;;;;;6.97;6.28;;;20.70;99.90;;;;;;10323642;28;20264;-84
2022/06/08 03:28:38;;;;;;;6.70;6.10;;;20.70;99.90;;;;;;10311543;28;20236;-84
2022/06/08 03:33:40;;;;;;;7.80;5.90;;;20.70;99.90;;;;;;10317122;28;20751;-84
2022/06/08 03:38:47;;;;;;;6.40;5.78;;;20.70;99.90;;;;;;10264179;28;20241;-84
2022/06/08 03:43:49;;;;;;;5.93;5.43;;;20.70;99.90;;;;;;10310736;28;20331;-84
2022/06/08 03:48:56;;;;;;;6.00;5.40;;;20.70;99.90;;;;;;10303371;28;20237;-83
2022/06/08 03:54:04;;;;;;;6.88;6.20;;;20.70;99.90;;;;;;10316696;28;20763;-84
2022/06/08 03:59:07;;;;;;;6.70;6.10;;;20.70;99.90;;;;;;10315174;28;20302;-84
2022/06/08 04:04:11;;;;;;;6.85;6.18;;;20.70;99.90;;;;;;10316647;28;20359;-84
2022/06/08 04:09:14;;;;;;;6.28;5.70;;;20.70;99.90;;;;;;10264182;28;20621;-84
2022/06/08 04:14:20;;;;;;;6.40;5.63;;;20.70;99.90;;;;;;10280592;28;20303;-84
2022/06/08 04:19:24;;;;;;;6.70;6.10;;;20.70;99.90;;;;;;10310964;28;20276;-84
2022/06/08 04:24:27;;;;;;;6.10;5.60;;;20.70;99.90;;;;;;10315939;28;20233;-84
2022/06/08 04:29:36;;;;;;;6.32;5.60;;;20.70;99.90;;;;;;10310215;28;20248;-85
2022/06/08 04:34:41;;;;;;;5.75;5.20;;;20.80;99.90;;;;;;10290359;28;20209;-85
2022/06/08 04:39:49;;;;;;;5.60;5.10;;;20.70;99.90;;;;;;10259755;28;20234;-84
2022/06/08 04:44:58;;;;;;;6.47;5.88;;;20.80;99.90;;;;;;10269929;28;20326;-84
2022/06/08 04:50:02;;;;;;;5.95;5.35;;;20.80;99.90;;;;;;10252038;28;20264;-84
2022/06/08 04:55:09;;;;;;;6.25;5.65;;;20.80;99.90;;;;;;10283239;28;20229;-83
2022/06/08 05:00:17;;;;;;;6.35;5.72;;;20.80;99.90;;;;;;10270653;28;20268;-85
2022/06/08 05:05:34;;;;;;;6.45;5.80;;;20.80;99.90;;;;;;10247095;28;20708;-85
2022/06/08 05:10:42;;;;;;;6.65;5.60;;;20.80;99.90;;;;;;10250043;28;20613;-84
2022/06/08 05:15:49;;;;;;;5.53;5.03;;;20.80;99.90;;;;;;10275475;28;20272;-85
2022/06/08 05:20:53;;;;;;;5.03;4.60;;;20.90;99.90;;;;;;10257313;28;20324;-84
2022/06/08 05:26:02;;;;;;;6.07;5.57;;;21.00;99.90;;;;;;10290369;28;20323;-85
2022/06/08 05:31:05;;;;;;;5.72;5.22;;;21.00;99.90;;;;;;10311363;28;20241;-85
2022/06/08 05:36:11;;;;;;;5.18;4.78;;;21.00;99.90;;;;;;10313170;28;20209;-85
2022/06/08 05:41:15;;;;;;;5.90;5.30;;;21.00;99.90;;;;;;10292903;28;20268;-85
2022/06/08 05:46:19;;;;;;;6.05;5.45;;;21.00;99.90;;;;;;10281876;28;20257;-84
2022/06/08 05:51:27;;;;;;;5.68;5.18;;;21.00;99.90;;;;;;10268372;28;20245;-85
2022/06/08 05:56:30;;;;;;;5.95;5.45;;;21.00;99.90;;;;;;10278240;28;20236;-85
2022/06/08 06:01:36;;;;;;;5.55;5.15;;;21.10;99.90;;;;;;10307502;28;20248;-85
2022/06/08 06:06:45;;;;;;;5.60;5.10;;;21.10;99.90;;;;;;10292080;28;20260;-84
2022/06/08 06:11:50;;;;;;;6.00;5.50;;;21.10;99.90;;;;;;10268986;28;20297;-84
2022/06/08 06:16:55;;;;;;;6.00;5.50;;;21.10;99.90;;;;;;10272122;28;20269;-84
2022/06/08 06:21:58;;;;;;;6.40;5.82;;;21.10;99.90;;;;;;10270626;28;20260;-84
2022/06/08 06:27:36;;;;;;;5.82;5.18;;;21.20;99.90;;;;;;10257127;28;20750;-84
2022/06/08 06:33:13;;;;;;;5.47;4.97;;;21.30;99.90;;;;;;10081790;29;20289;-84
2022/06/08 06:38:19;;;;;;;6.00;5.40;;;21.40;99.90;;;;;;10085130;29;20273;-84
2022/06/08 06:43:22;;;;;;;6.28;5.68;;;21.50;99.90;;;;;;10075938;29;20661;-84
2022/06/08 06:48:43;;;;;;;5.97;5.47;;;21.50;99.90;;;;;;10085964;29;20244;-83
2022/06/08 06:53:47;;;;;;;6.03;5.53;;;21.60;99.90;;;;;;10095110;29;20233;-83
2022/06/08 06:58:53;;;;;;;6.03;5.50;;;21.60;99.90;;;;;;10080954;29;20240;-84
2022/06/08 07:03:58;;;;;;;6.22;5.72;;;21.70;99.90;;;;;;10085212;29;20796;-84
2022/06/08 07:09:01;;;;;;;6.18;5.68;;;21.70;99.90;;;;;;10260160;28;20678;-84
2022/06/08 07:14:18;;;;;;;8.98;8.13;;;21.50;99.90;;;;;;10310064;28;20263;-84
2022/06/08 07:19:28;;;;;;;7.50;6.80;;;21.40;99.90;;;;;;10248337;28;20324;-84
2022/06/08 07:24:33;;;;;;;6.53;5.93;;;21.10;99.90;;;;;;10236274;29;20250;-84
2022/06/08 07:29:36;;;;;;;7.03;6.43;;;21.40;99.90;;;;;;10223919;28;20668;-84
2022/06/08 07:34:38;;;;;;;6.40;5.88;;;21.50;99.90;;;;;;10244603;28;20241;-84
2022/06/08 07:39:41;;;;;;;7.07;6.47;;;21.60;99.90;;;;;;10244108;28;20296;-83
2022/06/08 07:44:44;;;;;;;6.60;6.00;;;21.70;99.90;;;;;;10240736;28;20671;-84
2022/06/08 07:49:51;;;;;;;6.68;6.07;;;21.70;99.90;;;;;;10242776;28;20237;-84
2022/06/08 07:54:54;;;;;;;7.03;6.43;;;21.80;99.90;;;;;;10243825;29;20304;-84
2022/06/08 07:59:56;;;;;;;7.32;6.70;;;21.70;99.90;;;;;;10243814;28;20230;-84
2022/06/08 08:04:59;;;;;;;6.80;6.20;;;21.80;99.90;;;;;;10245569;28;20281;-83
2022/06/08 08:10:06;;;;;;;6.45;5.88;;;21.80;99.90;;;;;;10237689;28;20230;-84
2022/06/08 08:15:10;;;;;;;6.53;5.93;;;21.80;99.90;;;;;;10247389;28;20634;-83
2022/06/08 08:20:15;;;;;;;6.35;5.85;;;21.90;99.90;;;;;;10280607;28;20269;-84
2022/06/08 08:25:18;;;;;;;7.18;6.57;;;21.90;99.90;;;;;;10271426;28;20248;-84
2022/06/08 08:30:24;;;;;;;7.28;6.03;;;22.00;99.90;;;;;;10286288;28;20748;-83
2022/06/08 08:35:28;;;;;;;5.95;5.45;;;22.10;99.90;;;;;;10289726;28;20230;-84
2022/06/08 08:40:44;;;;;;;8.18;7.45;;;22.20;99.90;;;;;;10292622;28;20280;-84
2022/06/08 08:46:07;;;;;;;5.80;5.32;;;22.30;99.90;;;;;;10286206;28;20283;-84
2022/06/08 08:51:32;;;;;;;7.28;6.38;;;22.30;99.90;;;;;;10290197;28;20229;-84
2022/06/08 08:56:37;;;;;;;5.90;5.22;;;22.40;99.90;;;;;;10290066;28;20233;-84
2022/06/08 09:01:44;;;;;;;6.40;5.85;;;22.40;99.90;;;;;;10261102;28;20292;-84
2022/06/08 09:06:46;;;;;;;6.75;6.15;;;22.40;99.90;;;;;;10288405;28;20788;-84
2022/06/08 09:11:50;;;;;;;8.05;7.05;;;22.40;99.90;;;;;;10291017;28;20272;-84
2022/06/08 09:17:16;;;;;;;8.15;7.35;;;22.70;99.90;;;;;;10287899;28;20827;-84
2022/06/08 09:22:23;;;;;;;6.20;5.65;;;22.90;99.90;;;;;;10288809;28;20233;-84
2022/06/08 09:27:35;;;;;;;6.47;5.88;;;22.90;99.90;;;;;;10292202;28;20257;-84
2022/06/08 09:32:39;;;;;;;6.28;5.68;;;22.80;99.90;;;;;;10300925;28;20241;-84
2022/06/08 09:37:43;;;;;;;6.18;5.68;;;22.70;99.90;;;;;;10269269;28;20245;-84
2022/06/08 09:43:02;;;;;;;6.95;6.00;;;22.90;99.90;;;;;;10274527;28;20232;-83
2022/06/08 09:54:28;;;;;;;9.55;8.65;;;23.30;99.90;;;;;;10291432;28;20616;-84
2022/06/08 09:59:42;;;;;;;10.55;7.88;;;23.50;99.90;;;;;;10285467;28;20233;-84
2022/06/08 10:05:06;;;;;;;7.00;6.30;;;23.30;99.90;;;;;;10253646;28;20307;-84
2022/06/08 10:10:17;;;;;;;5.85;5.45;;;23.30;99.90;;;;;;10286359;28;20753;-84
2022/06/08 10:15:24;;;;;;;7.13;6.40;;;23.20;99.90;;;;;;10269783;28;20299;-83
2022/06/08 10:20:36;;;;;;;6.97;5.70;;;23.00;99.90;;;;;;10288719;28;20264;-84
2022/06/08 10:25:43;;;;;;;5.40;4.90;;;23.40;99.90;;;;;;10288063;28;20257;-84
2022/06/08 10:30:54;;;;;;;5.50;5.10;;;23.00;99.90;;;;;;10286320;28;20233;-84
2022/06/08 10:35:58;;;;;;;5.75;5.25;;;22.80;99.90;;;;;;10270526;28;20245;-84
2022/06/08 10:46:45;;;;;;;5.70;5.30;;;23.30;99.90;;;;;;10255974;28;20658;-84
2022/06/08 10:52:13;;;;;;;6.63;6.03;;;23.40;99.90;;;;;;10298698;28;20236;-84
2022/06/08 10:57:35;;;;;;;5.10;4.70;;;22.80;99.90;;;;;;10284038;28;20234;-84
2022/06/08 11:02:43;;;;;;;5.82;5.32;;;22.90;99.90;;;;;;10284381;28;20284;-84
2022/06/08 11:07:58;;;;;;;5.80;5.30;;;22.90;99.90;;;;;;10284397;28;20253;-84
2022/06/08 11:13:14;;;;;;;5.70;5.20;;;23.10;99.90;;;;;;10286896;28;20262;-84
2022/06/08 11:18:28;;;;;;;6.28;5.78;;;23.00;99.90;;;;;;10255467;28;20261;-84
2022/06/08 11:23:44;;;;;;;6.28;5.68;;;22.70;99.90;;;;;;10281577;28;20241;-84
2022/06/08 11:28:50;;;;;;;5.97;5.47;;;22.70;99.90;;;;;;10287553;28;20315;-84
2022/06/08 11:34:18;;;;;;;7.55;6.85;;;23.00;99.90;;;;;;10283932;28;20757;-84
2022/06/08 11:39:51;;;;;;;5.82;5.22;;;23.20;99.90;;;;;;10280949;28;20260;-84
2022/06/08 11:45:04;;;;;;;7.55;6.00;;;22.90;99.90;;;;;;10264037;28;20284;-84
2022/06/08 11:50:17;;;;;;;6.28;5.72;;;23.30;99.90;;;;;;10266404;28;20288;-84
2022/06/08 11:55:24;;;;;;;5.60;5.20;;;22.90;99.90;;;;;;10274019;28;20271;-84
2022/06/08 12:00:31;;;;;;;5.72;5.22;;;23.10;99.90;;;;;;10271806;28;20229;-84
2022/06/08 12:05:35;;;;;;;6.18;5.57;;;23.20;99.90;;;;;;10276613;28;20719;-84
2022/06/08 12:10:38;;;;;;;5.88;5.38;;;23.40;99.90;;;;;;10269612;28;20280;-84
2022/06/08 12:15:44;;;;;;;5.50;5.00;;;22.70;99.90;;;;;;10306422;28;20281;-84
2022/06/08 12:20:49;;;;;;;5.88;5.13;;;23.00;99.90;;;;;;10269517;28;20665;-84
2022/06/08 12:25:55;;;;;;;6.32;5.72;;;23.20;99.90;;;;;;10289503;28;20672;-84
2022/06/08 12:30:58;;;;;;;6.60;5.57;;;22.90;99.90;;;;;;10275508;28;20233;-84
2022/06/08 12:36:17;;;;;;;4.85;4.45;;;23.00;99.90;;;;;;10289311;28;20265;-84
2022/06/08 12:41:20;;;;;;;5.70;5.30;;;22.90;99.90;;;;;;10289173;28;20600;-84
2022/06/08 12:46:31;;;;;;;5.00;4.50;;;22.90;99.90;;;;;;10266822;28;20256;-84
2022/06/08 12:51:41;;;;;;;5.10;4.70;;;22.90;99.90;;;;;;10290163;28;20292;-84
2022/06/08 12:56:47;;;;;;;5.40;4.90;;;23.10;99.90;;;;;;10272324;28;20225;-84
2022/06/08 13:01:49;;;;;;;5.55;5.13;;;22.90;99.90;;;;;;10282482;28;20951;-84
2022/06/08 13:06:52;;;;;;;6.53;5.30;;;22.60;99.90;;;;;;10284411;28;20260;-84
2022/06/08 13:11:57;;;;;;;5.30;4.80;;;22.70;99.90;;;;;;10288565;28;20670;-84
2022/06/08 13:17:00;;;;;;;5.38;4.97;;;22.90;99.90;;;;;;10269218;28;20284;-84
2022/06/08 13:22:03;;;;;;;5.65;5.15;;;22.60;99.90;;;;;;10289047;28;20630;-84
2022/06/08 13:27:12;;;;;;;4.60;4.18;;;22.50;99.90;;;;;;10269957;28;20769;-83
2022/06/08 13:32:20;;;;;;;4.75;4.28;;;23.00;99.90;;;;;;10290404;28;20280;-83
2022/06/08 13:37:41;;;;;;;5.10;4.70;;;22.70;99.90;;;;;;10290643;28;20233;-82
2022/06/08 13:42:44;;;;;;;5.43;5.03;;;22.50;99.90;;;;;;10301932;28;20639;-83
2022/06/08 13:47:55;;;;;;;4.80;4.40;;;22.30;99.90;;;;;;10313218;28;20647;-82
2022/06/08 13:52:59;;;;;;;3.65;2.78;;;22.70;99.90;;;;;;10294954;28;20260;-83
2022/06/08 13:58:04;;;;;;;5.40;5.00;;;23.00;99.90;;;;;;10296196;28;20282;-83
2022/06/08 14:03:12;;;;;;;5.25;4.70;;;23.10;99.90;;;;;;10328853;28;20285;-82
2022/06/08 14:13:41;;;;;;;5.80;5.30;;;23.00;99.90;;;;;;10306049;28;20233;-82
2022/06/08 14:18:47;;;;;;;5.50;5.05;;;22.70;99.90;;;;;;10306848;28;20261;-82
2022/06/08 14:23:54;;;;;;;4.55;4.15;;;22.70;99.90;;;;;;10308505;28;20237;-94
2022/06/08 14:28:58;;;;;;;4.60;4.10;;;23.20;99.90;;;;;;10321618;28;20253;-93
2022/06/08 14:34:07;;;;;;;5.85;5.35;;;23.40;99.90;;;;;;10259281;28;20627;-93
2022/06/08 14:39:13;;;;;;;5.50;4.70;;;23.10;99.90;;;;;;10271856;28;20578;-92
2022/06/08 14:44:20;;;;;;;10.70;5.18;;;23.20;99.90;;;;;;10284762;28;20200;-93
2022/06/08 14:49:33;;;;;;;5.80;4.68;;;22.90;99.90;;;;;;10285413;28;20245;-92
2022/06/08 14:54:37;;;;;;;6.47;5.22;;;22.90;99.90;;;;;;10271968;28;20233;-93
2022/06/08 14:59:41;;;;;;;4.40;4.00;;;22.80;99.90;;;;;;10295278;28;20954;-94
2022/06/08 15:04:44;;;;;;;4.85;4.40;;;22.80;99.90;;;;;;10271101;28;20648;-93
2022/06/08 15:09:48;;;;;;;4.93;4.50;;;22.70;99.90;;;;;;10284481;28;20799;-94
2022/06/08 15:14:55;;;;;;;4.22;3.92;;;22.70;99.90;;;;;;10310687;28;20204;-93
2022/06/08 15:20:01;;;;;;;4.60;4.25;;;22.80;99.90;;;;;;10277721;28;20237;-94
2022/06/08 15:25:08;;;;;;;5.22;4.75;;;22.80;99.90;;;;;;10268806;28;20200;-93
2022/06/08 15:30:20;;;;;;;5.22;4.72;;;22.80;99.90;;;;;;10310350;28;20252;-93
2022/06/08 15:35:23;;;;;;;5.38;4.88;;;22.80;99.90;;;;;;10256125;28;20280;-95
2022/06/08 15:40:30;;;;;;;4.60;3.45;;;22.70;99.90;;;;;;10248641;28;20229;-84
2022/06/08 15:45:33;;;;;;;5.43;3.63;;;;;;;;;;10285631;28;20237;-84
2022/06/08 15:50:47;;;;;;;4.32;3.10;;;24.70;99.90;;;;;;10272902;28;20233;-84
2022/06/08 15:55:56;;;;;;;4.10;3.17;;;25.00;99.90;;;;;;10286121;28;20263;-84
2022/06/08 16:00:59;;;;;;;3.30;3.00;;;25.30;99.90;;;;;;10229015;29;20206;-84
2022/06/08 16:06:03;;;;;;;2.72;2.47;;;25.50;99.90;;;;;;10280180;28;20679;-84
2022/06/08 16:11:05;;;;;;;3.67;2.70;;;25.70;99.90;;;;;;10286130;28;20229;-85
2022/06/08 16:16:08;;;;;;;3.53;3.22;;;25.80;99.90;;;;;;10285867;28;20638;-85
2022/06/08 16:21:11;;;;;;;3.88;3.58;;;25.90;99.90;;;;;;10284816;28;20198;-85
2022/06/08 16:26:13;;;;;;;3.22;3.00;;;26.00;99.90;;;;;;10285819;28;20249;-85
2022/06/08 16:31:16;;;;;;;2.60;2.40;;;26.10;99.90;;;;;;10285897;28;20242;-84
2022/06/08 16:36:19;;;;;;;4.90;3.22;;;26.10;99.90;;;;;;10281585;28;20211;-84
2022/06/08 16:41:22;;;;;;;3.17;2.88;;;26.10;99.90;;;;;;10253605;29;20358;-84
2022/06/08 16:46:24;;;;;;;3.17;2.97;;;26.20;99.90;;;;;;10253554;29;20632;-85
2022/06/08 16:51:27;;;;;;;2.88;2.67;;;26.20;99.90;;;;;;10287158;28;20280;-84
2022/06/08 17:01:50;;;;;;;2.90;2.70;;;26.00;99.90;;;;;;10292227;28;20325;-84
2022/06/08 17:06:53;;;;;;;3.05;2.85;;;26.00;99.90;;;;;;10291392;28;20257;-85
2022/06/08 17:11:57;;;;;;;3.20;2.90;;;25.90;99.90;;;;;;10290596;28;20645;-85
2022/06/08 17:17:00;;;;;;;3.25;2.97;;;25.90;99.90;;;;;;10285439;28;20270;-84
2022/06/08 17:22:03;;;;;;;4.47;3.03;;;25.80;99.90;;;;;;10289257;28;20197;-85
2022/06/08 17:27:06;;;;;;;3.25;2.80;;;25.80;99.90;;;;;;10274382;28;20662;-84
2022/06/08 17:32:10;;;;;;;3.08;2.75;;;25.70;99.90;;;;;;10250621;29;20292;-84
2022/06/08 17:37:12;;;;;;;3.28;3.03;;;25.60;99.90;;;;;;10288705;28;20276;-84
2022/06/08 17:42:20;;;;;;;2.63;2.42;;;25.50;99.90;;;;;;10288583;28;20292;-84
2022/06/08 17:47:27;;;;;;;3.25;2.85;;;25.50;99.90;;;;;;10287705;28;20711;-84
2022/06/08 17:52:30;;;;;;;3.08;2.88;;;25.40;99.90;;;;;;10275917;28;20641;-84
2022/06/08 17:57:34;;;;;;;2.90;2.70;;;25.40;99.90;;;;;;10266432;28;20241;-84
2022/06/08 18:02:38;;;;;;;2.80;2.60;;;25.30;99.90;;;;;;10288181;28;20732;-84
2022/06/08 18:07:40;;;;;;;2.85;2.65;;;25.20;99.90;;;;;;9942110;28;9999673;-84
2022/06/08 18:12:43;;;;;;;3.35;3.05;;;25.00;99.90;;;;;;10285578;28;20229;-84
2022/06/08 18:17:46;;;;;;;3.78;2.78;;;24.80;99.90;;;;;;10264810;28;20308;-84
2022/06/08 18:22:50;;;;;;;2.95;2.75;;;24.70;99.90;;;;;;10281590;28;20303;-84
2022/06/08 18:27:57;;;;;;;3.00;2.80;;;24.60;99.90;;;;;;10252327;28;20242;-84
2022/06/08 18:33:00;;;;;;;3.25;2.90;;;24.40;99.90;;;;;;10265561;28;20265;-84
2022/06/08 18:38:06;;;;;;;2.95;2.75;;;24.40;99.90;;;;;;10271130;28;20272;-84
2022/06/08 18:43:24;;;;;;;3.60;3.30;;;24.30;99.90;;;;;;10273275;28;20288;-84
2022/06/08 18:48:27;;;;;;;3.33;2.72;;;24.20;99.90;;;;;;10262971;28;20248;-84
2022/06/08 18:53:30;;;;;;;3.00;2.80;;;24.10;99.90;;;;;;10282555;28;20253;-84
2022/06/08 18:58:33;;;;;;;2.47;2.33;;;24.10;99.90;;;;;;10284499;28;20232;-85
2022/06/08 19:03:36;;;;;;;2.58;2.38;;;24.00;99.90;;;;;;10267567;28;20237;-84
2022/06/08 19:08:38;;;;;;;2.83;2.63;;;23.90;99.90;;;;;;10286723;28;20823;-84
2022/06/08 19:13:43;;;;;;;2.65;2.45;;;23.80;99.90;;;;;;10286253;28;20226;-84
2022/06/08 19:24:08;;;;;;;2.80;2.60;;;23.70;99.90;;;;;;10227912;29;20271;-85
2022/06/08 19:29:11;;;;;;;3.10;2.90;;;23.70;99.90;;;;;;10229304;29;20253;-85
2022/06/08 19:34:15;;;;;;;2.83;2.63;;;23.70;99.90;;;;;;10246959;29;20230;-85
2022/06/08 19:39:19;;;;;;;3.70;3.05;;;23.60;99.90;;;;;;10238531;29;20289;-85
2022/06/08 19:44:28;;;;;;;3.28;3.03;;;23.60;99.90;;;;;;10221453;29;20301;-84
2022/06/08 19:49:31;;;;;;;2.97;2.78;;;23.50;99.90;;;;;;10207157;29;20254;-85
2022/06/08 19:54:33;;;;;;;3.03;2.83;;;23.50;99.90;;;;;;10204454;29;20206;-84
2022/06/08 19:59:36;;;;;;;3.20;3.00;;;23.50;99.90;;;;;;10246436;29;20234;-84
2022/06/08 20:04:38;;;;;;;3.22;2.95;;;23.40;99.90;;;;;;10244313;29;20261;-84
2022/06/08 20:09:41;;;;;;;3.35;3.05;;;23.40;99.90;;;;;;10246715;28;20289;-85
2022/06/08 20:14:43;;;;;;;2.67;2.47;;;23.30;99.90;;;;;;10253008;29;20265;-85
2022/06/08 20:19:46;;;;;;;3.03;2.83;;;23.30;99.90;;;;;;10252757;28;20266;-85
2022/06/08 20:24:49;;;;;;;3.03;2.75;;;23.20;99.90;;;;;;10252407;29;20289;-86
2022/06/08 20:29:57;;;;;;;2.65;2.45;;;23.20;99.90;;;;;;10233133;29;20293;-85
2022/06/08 20:35:00;;;;;;;2.65;2.45;;;23.10;99.90;;;;;;10218827;29;20230;-84
2022/06/08 20:40:03;;;;;;;2.78;2.58;;;23.00;99.90;;;;;;10249165;28;20242;-85
2022/06/08 20:45:07;;;;;;;3.22;2.95;;;23.00;99.90;;;;;;10233471;29;20289;-85
2022/06/08 20:50:10;;;;;;;3.42;3.13;;;23.00;99.90;;;;;;10252522;29;20316;-85
2022/06/08 20:55:17;;;;;;;3.20;2.95;;;23.00;99.90;;;;;;10234156;29;20222;-85
2022/06/08 21:00:22;;;;;;;3.80;2.97;;;22.90;99.90;;;;;;10226349;29;20238;-85
2022/06/08 21:05:28;;;;;;;3.08;2.78;;;22.90;99.90;;;;;;10211413;29;20646;-85
2022/06/08 21:10:30;;;;;;;2.95;2.75;;;22.90;99.90;;;;;;10251749;29;20340;-85
2022/06/08 21:15:33;;;;;;;3.55;3.25;;;22.80;99.90;;;;;;10240912;29;20238;-85
2022/06/08 21:20:36;;;;;;;3.67;3.38;;;22.80;99.90;;;;;;10264102;28;20718;-85
2022/06/08 21:25:39;;;;;;;3.70;3.40;;;22.70;99.90;;;;;;10271494;28;20245;-85
2022/06/08 21:30:42;;;;;;;3.55;3.22;;;22.70;99.90;;;;;;10269100;28;20646;-85
2022/06/08 21:35:45;;;;;;;3.65;3.45;;;22.70;99.90;;;;;;10274084;28;20249;-85
2022/06/08 21:40:47;;;;;;;3.97;3.58;;;22.70;99.90;;;;;;10272742;28;20229;-85
2022/06/08 21:45:57;;;;;;;3.22;3.03;;;22.70;99.90;;;;;;10267767;28;20292;-85
2022/06/08 21:50:59;;;;;;;3.63;3.33;;;22.60;99.90;;;;;;10268067;28;20674;-86
2022/06/08 21:56:03;;;;;;;3.58;3.33;;;22.60;99.90;;;;;;10249114;28;20264;-85
2022/06/08 22:01:05;;;;;;;3.80;3.50;;;22.60;99.90;;;;;;10249041;28;20775;-85
2022/06/08 22:06:10;;;;;;;3.58;3.28;;;22.60;99.90;;;;;;10262624;28;20269;-85
2022/06/08 22:11:13;;;;;;;3.70;3.40;;;22.50;99.90;;;;;;10287675;28;20305;-85
2022/06/08 22:16:19;;;;;;;4.03;3.72;;;22.50;99.90;;;;;;10271855;28;20237;-85
2022/06/08 22:21:24;;;;;;;4.07;3.78;;;22.50;99.90;;;;;;10281077;28;20284;-86
2022/06/08 22:26:28;;;;;;;3.88;3.58;;;22.40;99.90;;;;;;10289145;28;20237;-85
2022/06/08 22:31:31;;;;;;;4.20;3.90;;;22.40;99.90;;;;;;10269155;28;20265;-84
2022/06/08 22:36:34;;;;;;;4.68;4.28;;;22.40;99.90;;;;;;10250361;28;20230;-84
2022/06/08 22:41:36;;;;;;;4.25;3.92;;;22.40;99.90;;;;;;10286975;28;20221;-85
2022/06/08 22:46:40;;;;;;;3.95;3.65;;;22.40;99.90;;;;;;10284936;28;20367;-85
2022/06/08 22:51:42;;;;;;;4.18;3.78;;;22.30;99.90;;;;;;10286964;28;20260;-84
2022/06/08 22:56:45;;;;;;;3.72;3.42;;;22.30;99.90;;;;;;10287169;28;20265;-85
2022/06/08 23:01:47;;;;;;;4.15;3.85;;;22.30;99.90;;;;;;10267544;28;20268;-84
2022/06/08 23:06:50;;;;;;;4.07;3.78;;;22.20;99.90;;;;;;10286979;28;20326;-85
2022/06/08 23:11:52;;;;;;;4.40;4.00;;;22.30;99.90;;;;;;10286304;28;20253;-85
2022/06/08 23:22:17;;;;;;;4.28;3.88;;;22.20;99.90;;;;;;10247696;29;20238;-85
2022/06/08 23:27:20;;;;;;;4.70;4.28;;;22.20;99.90;;;;;;10230406;29;20245;-84
2022/06/08 23:32:22;;;;;;;4.40;4.00;;;22.20;99.90;;;;;;10247484;29;20265;-85
2022/06/08 23:37:25;;;;;;;4.30;3.95;;;22.20;99.90;;;;;;10248182;29;20675;-85
2022/06/08 23:42:27;;;;;;;4.68;4.32;;;22.10;99.90;;;;;;10223896;29;20225;-85
2022/06/08 23:47:50;;;;;;;4.60;4.20;;;22.10;99.90;;;;;;10209420;29;20312;-85
2022/06/08 23:52:52;;;;;;;4.82;4.43;;;22.10;99.90;;;;;;10233908;29;20625;-85
2022/06/08 23:57:56;;;;;;;4.28;3.90;;;22.10;99.90;;;;;;10254109;29;20205;-85
